createdAt,value
2019-01-02T00:01:37.522Z,80.99
2019-01-02T00:07:42.549Z,81.36
2019-01-02T00:13:47.113Z,81.72
2019-01-02T00:19:51.781Z,84.50
2019-01-02T00:25:56.400Z,84.46
2019-01-02T00:32:00.977Z,82.98
2019-01-02T00:38:05.879Z,82.03
2019-01-02T00:44:10.518Z,81.36
2019-01-02T00:50:15.143Z,79.67
2019-01-02T00:56:19.751Z,79.85
2019-01-02T01:02:24.678Z,80.25
2019-01-02T01:08:29.245Z,83.88
2019-01-02T01:14:34.082Z,85.67
2019-01-02T01:20:38.773Z,87.16
2019-01-02T01:26:43.340Z,85.90
2019-01-02T01:32:47.943Z,85.49
2019-01-02T01:38:53.048Z,85.08
2019-01-02T01:44:57.699Z,86.24
2019-01-02T01:51:02.328Z,86.77
2019-01-02T01:57:07.018Z,87.19
2019-01-02T02:03:11.675Z,87.83
2019-01-02T02:09:16.612Z,87.86
2019-01-02T02:15:21.537Z,87.31
2019-01-02T02:21:26.469Z,86.55
2019-01-02T02:27:31.296Z,86.76
2019-01-02T02:33:36.231Z,87.30
2019-01-02T02:39:41.190Z,86.87
2019-01-02T02:45:46.252Z,86.83
2019-01-02T02:51:51.191Z,85.77
2019-01-02T02:57:56.018Z,86.25
2019-01-02T03:04:00.587Z,85.37
2019-01-02T03:10:09.527Z,84.82
2019-01-02T03:16:14.366Z,84.48
2019-01-02T03:22:20.971Z,82.22
2019-01-02T03:28:25.808Z,82.63
2019-01-02T03:34:30.721Z,81.50
2019-01-02T03:40:35.649Z,81.28
2019-01-02T03:46:40.343Z,81.41
2019-01-02T03:52:44.972Z,81.19
2019-01-02T03:58:49.539Z,81.60
2019-01-02T04:04:54.116Z,81.48
2019-01-02T04:10:58.752Z,81.35
2019-01-02T04:17:03.335Z,81.26
2019-01-02T04:23:08.021Z,81.25
2019-01-02T04:29:12.569Z,81.44
2019-01-02T04:35:17.161Z,81.66
2019-01-02T04:41:21.791Z,81.50
2019-01-02T04:47:26.358Z,81.10
2019-01-02T04:53:30.991Z,80.82
2019-01-02T04:59:35.573Z,80.32
2019-01-02T05:05:40.147Z,80.41
2019-01-02T05:11:44.758Z,79.66
2019-01-02T05:17:49.309Z,79.93
2019-01-02T05:23:53.870Z,79.37
2019-01-02T05:29:58.433Z,79.08
2019-01-02T05:36:02.998Z,79.79
2019-01-02T05:42:07.559Z,79.07
2019-01-02T05:48:12.122Z,78.98
2019-01-02T05:54:16.700Z,78.98
2019-01-02T06:00:21.327Z,79.24
2019-01-02T06:06:25.898Z,79.16
2019-01-02T06:12:30.461Z,80.02
2019-01-02T06:18:35.022Z,80.56
2019-01-02T06:24:39.603Z,80.76
2019-01-02T06:30:44.284Z,80.28
2019-01-02T06:36:48.918Z,80.69
2019-01-02T06:42:53.472Z,79.67
2019-01-02T06:48:58.047Z,79.16
2019-01-02T06:55:02.599Z,79.43
2019-01-02T07:01:07.234Z,79.77
2019-01-02T07:07:11.859Z,79.84
2019-01-02T07:13:16.408Z,79.31
2019-01-02T07:19:22.678Z,78.68
2019-01-02T07:25:27.259Z,78.72
2019-01-02T07:31:31.800Z,78.75
2019-01-02T07:37:43.742Z,77.88
2019-01-02T07:44:25.936Z,77.46
2019-01-02T07:51:06.282Z,76.84
2019-01-02T07:57:46.892Z,76.96
2019-01-02T08:04:28.980Z,76.77
2019-01-02T08:11:00.357Z,76.32
2019-01-02T08:17:18.354Z,75.10
2019-01-02T08:24:04.747Z,75.69
2019-01-02T08:30:28.624Z,75.08
2019-01-02T08:37:10.533Z,75.17
2019-01-02T08:43:28.512Z,74.01
2019-01-02T08:50:03.030Z,71.65
2019-01-02T08:56:28.771Z,72.83
2019-01-02T09:02:43.704Z,73.31
2019-01-02T09:09:21.268Z,72.32
2019-01-02T09:15:51.075Z,70.39
2019-01-02T09:22:08.725Z,68.81
2019-01-02T09:28:49.433Z,67.52
2019-01-02T09:35:38.830Z,67.66
2019-01-02T09:42:02.513Z,67.09
2019-01-02T09:48:45.963Z,66.24
2019-01-02T09:55:06.798Z,65.93
2019-01-02T10:01:39.972Z,64.40
2019-01-02T10:07:51.823Z,65.74
2019-01-02T10:14:45.806Z,63.16
2019-01-02T10:21:12.670Z,62.99
2019-01-02T10:27:47.009Z,63.96
2019-01-02T10:34:16.768Z,62.68
2019-01-02T10:40:51.323Z,61.37
2019-01-02T10:47:12.527Z,62.47
2019-01-02T10:53:36.747Z,62.85
2019-01-02T11:00:03.530Z,60.67
2019-01-02T11:06:40.746Z,61.14
2019-01-02T11:13:10.532Z,59.51
2019-01-02T11:19:42.072Z,58.24
2019-01-02T11:26:24.021Z,59.08
2019-01-02T11:32:58.303Z,60.03
2019-01-02T11:39:22.376Z,58.57
2019-01-02T11:45:26.933Z,57.21
2019-01-02T11:51:31.493Z,57.19
2019-01-02T11:57:36.053Z,57.38
2019-01-02T12:03:40.610Z,55.76
2019-01-02T12:09:45.192Z,56.27
2019-01-02T12:15:49.763Z,54.90
2019-01-02T12:21:54.372Z,56.26
2019-01-02T12:27:58.954Z,55.43
2019-01-02T12:34:03.504Z,54.13
2019-01-02T12:40:08.794Z,52.76
2019-01-02T12:46:13.342Z,52.15
2019-01-02T12:52:17.904Z,53.83
2019-01-02T12:58:22.537Z,53.71
2019-01-02T13:04:40.169Z,53.53
2019-01-02T13:10:49.391Z,52.48
2019-01-02T13:17:18.813Z,53.38
2019-01-02T13:23:36.542Z,54.51
2019-01-02T13:30:06.347Z,54.19
2019-01-02T13:36:27.114Z,55.28
2019-01-02T13:42:48.074Z,55.50
2019-01-02T13:49:22.418Z,54.95
2019-01-02T13:55:26.971Z,55.48
2019-01-02T14:01:31.527Z,55.38
2019-01-02T14:07:36.967Z,55.21
2019-01-02T14:13:41.525Z,54.54
2019-01-02T14:19:46.078Z,52.76
2019-01-02T14:25:50.634Z,53.75
2019-01-02T14:31:55.185Z,54.00
2019-01-02T14:37:59.728Z,54.89
2019-01-02T14:44:04.343Z,54.16
2019-01-02T14:50:10.022Z,54.66
2019-01-02T14:56:14.591Z,53.02
2019-01-02T15:02:19.299Z,52.77
2019-01-02T15:08:23.838Z,53.87
2019-01-02T15:14:28.383Z,55.74
2019-01-02T15:20:32.933Z,54.75
2019-01-02T15:26:37.489Z,54.60
2019-01-02T15:32:42.043Z,53.95
2019-01-02T15:38:46.604Z,54.17
2019-01-02T15:44:51.174Z,55.35
2019-01-02T15:50:55.728Z,55.65
2019-01-02T15:57:00.272Z,57.00
2019-01-02T16:03:04.899Z,56.09
2019-01-02T16:09:09.610Z,56.74
2019-01-02T16:15:14.166Z,56.98
2019-01-02T16:21:19.933Z,56.39
2019-01-02T16:27:24.483Z,56.12
2019-01-02T16:33:29.107Z,56.64
2019-01-02T16:39:33.653Z,57.18
2019-01-02T16:45:38.215Z,56.44
2019-01-02T16:51:42.782Z,56.10
2019-01-02T16:57:47.337Z,56.89
2019-01-02T17:03:51.912Z,56.86
2019-01-02T17:09:56.551Z,58.96
2019-01-02T17:16:01.204Z,60.13
2019-01-02T17:22:05.750Z,60.56
2019-01-02T17:28:10.300Z,61.08
2019-01-02T17:34:14.857Z,62.02
2019-01-02T17:40:19.442Z,61.21
2019-01-02T17:46:23.990Z,61.15
2019-01-02T17:52:28.540Z,61.97
2019-01-02T17:58:33.122Z,61.02
2019-01-02T18:04:37.736Z,62.18
2019-01-02T18:10:42.289Z,62.01
2019-01-02T18:16:46.853Z,62.39
2019-01-02T18:22:51.406Z,62.83
2019-01-02T18:28:55.994Z,62.98
2019-01-02T18:35:00.557Z,63.45
2019-01-02T18:41:05.128Z,63.30
2019-01-02T18:47:09.761Z,63.53
2019-01-02T18:53:14.313Z,62.79
2019-01-02T18:59:18.947Z,62.83
2019-01-02T19:05:23.501Z,62.92
2019-01-02T19:11:28.060Z,63.40
2019-01-02T19:17:32.611Z,64.05
2019-01-02T19:23:37.168Z,63.97
2019-01-02T19:29:41.737Z,64.52
2019-01-02T19:35:46.355Z,65.23
2019-01-02T19:41:50.956Z,65.95
2019-01-02T19:47:55.488Z,66.08
2019-01-02T19:54:00.040Z,65.91
2019-01-02T20:00:07.324Z,66.64
2019-01-02T20:06:11.875Z,66.68
2019-01-02T20:12:16.444Z,67.34
2019-01-02T20:18:21.573Z,67.69
2019-01-02T20:24:26.148Z,68.26
2019-01-02T20:30:30.717Z,68.21
2019-01-02T20:36:40.563Z,68.28
2019-01-02T20:42:41.623Z,68.81
2019-01-02T20:48:46.197Z,68.78
2019-01-02T20:54:50.746Z,68.99
2019-01-02T21:00:55.401Z,69.20
2019-01-02T21:06:59.949Z,69.09
2019-01-02T21:13:04.597Z,68.97
2019-01-02T21:19:09.272Z,69.69
2019-01-02T21:25:13.839Z,69.67
2019-01-02T21:31:18.476Z,69.48
2019-01-02T21:37:23.091Z,69.20
2019-01-02T21:43:27.649Z,69.55
2019-01-02T21:49:32.232Z,69.67
2019-01-02T21:55:36.826Z,69.69
2019-01-02T22:01:41.366Z,69.74
2019-01-02T22:07:45.917Z,69.90
2019-01-02T22:13:50.506Z,69.75
2019-01-02T22:19:55.042Z,69.82
2019-01-02T22:25:59.671Z,72.19
2019-01-02T22:32:04.233Z,69.85
2019-01-02T22:38:08.815Z,70.30
2019-01-02T22:44:13.384Z,70.36
2019-01-02T22:50:17.972Z,69.97
2019-01-02T22:56:22.525Z,69.84
2019-01-02T23:02:28.768Z,69.96
2019-01-02T23:08:37.923Z,70.64
2019-01-02T23:14:44.151Z,70.47
2019-01-02T23:20:53.079Z,70.38
2019-01-02T23:27:14.056Z,70.55
2019-01-02T23:33:36.132Z,70.49
2019-01-02T23:39:49.316Z,70.56
2019-01-02T23:45:55.578Z,70.75
2019-01-02T23:52:01.773Z,70.74
2019-01-02T23:58:10.714Z,70.96
